Time;durP1;ratioP1;P1;durP2;ratioP2;P2;SDS_P1;SDS_P2;PMS_P1;PMS_P2;Temp;Humidity;BMP_temperature;BMP_pressure;BME280_temperature;BME280_humidity;BME280_pressure;Samples;Min_cycle;Max_cycle;Signal;HPM_P1;HPM_P2
2021/11/30 00:01:07;;;;;;;1.38;1.27;;;;;;;-17.39;86.84;100518.91;4993105;28;20054;-63
2021/11/30 00:03:34;;;;;;;1.42;1.33;;;;;;;-17.33;86.82;100511.78;4992666;28;20133;-62
2021/11/30 00:06:02;;;;;;;;;;;;;;;-17.23;86.04;100511.47;4993436;28;20064;-61
2021/11/30 00:08:31;;;;;;;1.80;1.65;;;;;;;-17.19;85.73;100500.91;4992844;28;19953;-63
2021/11/30 00:10:59;;;;;;;1.63;1.55;;;;;;;-17.40;87.28;100498.16;4992858;28;20053;-61
2021/11/30 00:13:30;;;;;;;1.88;1.77;;;;;;;-17.28;85.97;100487.16;4992869;28;20128;-62
2021/11/30 00:15:58;;;;;;;1.05;1.05;;;;;;;-17.27;86.65;100483.88;4992920;28;20141;-63
2021/11/30 00:18:29;;;;;;;1.10;1.10;;;;;;;-17.25;86.06;100472.38;4992801;28;20133;-61
2021/11/30 00:20:56;;;;;;;1.45;1.40;;;;;;;-17.18;86.36;100470.28;4992889;28;20073;-61
2021/11/30 00:23:25;;;;;;;1.90;1.80;;;;;;;-17.19;85.50;100470.19;4992440;28;20141;-62
2021/11/30 00:25:52;;;;;;;1.77;1.67;;;;;;;-17.24;85.96;100464.13;4992860;28;20125;-61
2021/11/30 00:28:19;;;;;;;1.40;1.30;;;;;;;-17.37;86.63;100453.53;4992725;28;20050;-61
2021/11/30 00:30:47;;;;;;;1.17;1.17;;;;;;;-17.31;85.42;100459.59;4992861;28;20242;-62
2021/11/30 00:33:14;;;;;;;1.00;1.00;;;;;;;-17.35;85.41;100456.13;4992581;28;20403;-61
2021/11/30 00:35:40;;;;;;;;;;;;;;;-17.42;85.99;100446.63;4993365;28;20141;-62
2021/11/30 00:38:08;;;;;;;;;;;;;;;-17.32;85.89;100451.28;4992927;28;20028;-61
2021/11/30 00:40:39;;;;;;;1.92;1.70;;;;;;;-17.48;86.35;100443.84;4992799;28;19922;-61
2021/11/30 00:43:06;;;;;;;1.50;1.40;;;;;;;-17.44;85.83;100440.72;4992600;28;20046;-64
2021/11/30 00:45:39;;;;;;;1.08;1.08;;;;;;;-17.39;86.01;100434.34;4992414;28;20572;-61
2021/11/30 00:48:10;;;;;;;1.00;1.00;;;;;;;-17.38;86.25;100433.59;4992443;28;20125;-61
2021/11/30 00:50:42;;;;;;;6.82;2.10;;;;;;;-17.46;86.20;100422.41;4992430;28;20050;-64
2021/11/30 00:53:10;;;;;;;2.35;2.03;;;;;;;-17.38;85.89;100417.03;4992862;28;20082;-62
2021/11/30 00:55:39;;;;;;;1.83;1.73;;;;;;;-17.40;86.14;100403.66;4992451;28;20051;-62
2021/11/30 00:58:07;;;;;;;1.40;1.30;;;;;;;-17.42;86.08;100405.19;4992266;28;20051;-62
2021/11/30 01:00:35;;;;;;;2.50;2.30;;;;;;;-17.38;85.92;100406.22;4992229;28;20137;-62
2021/11/30 01:03:03;;;;;;;1.80;1.70;;;;;;;-17.32;85.87;100406.53;4992322;28;20484;-61
2021/11/30 01:05:30;;;;;;;2.28;2.08;;;;;;;-17.40;86.38;100398.69;4995986;28;20054;-62
2021/11/30 01:07:57;;;;;;;2.03;1.88;;;;;;;-17.35;85.93;100399.78;4996093;28;20080;-62
2021/11/30 01:10:24;;;;;;;;;;;;;;;-17.32;86.44;100388.28;4996495;28;20137;-63
2021/11/30 01:12:53;;;;;;;1.48;1.45;;;;;;;-17.39;85.42;100394.56;4995764;28;20008;-63
2021/11/30 01:15:25;;;;;;;3.38;2.28;;;;;;;-17.43;86.70;100383.59;4995970;28;20051;-62
2021/11/30 01:17:52;;;;;;;2.47;2.28;;;;;;;-17.37;85.79;100378.94;4996043;28;20047;-62
2021/11/30 01:20:19;;;;;;;1.55;1.40;;;;;;;-17.41;85.84;100381.22;4996034;28;20085;-62
2021/11/30 01:22:47;;;;;;;2.45;2.15;;;;;;;-17.52;86.19;100372.34;4995944;28;20062;-62
2021/11/30 01:25:14;;;;;;;1.60;1.50;;;;;;;-17.50;87.05;100374.13;4995837;28;20484;-62
2021/11/30 01:27:41;;;;;;;1.35;1.35;;;;;;;-17.31;85.87;100370.06;4995978;28;20082;-64
2021/11/30 01:30:13;;;;;;;1.17;1.17;;;;;;;-17.42;86.81;100367.91;4995774;28;20150;-63
2021/11/30 01:32:42;;;;;;;2.20;2.05;;;;;;;-17.44;86.33;100359.53;4995651;28;20093;-62
2021/11/30 01:35:10;;;;;;;1.83;1.73;;;;;;;-17.40;86.50;100358.03;4995841;28;20077;-62
2021/11/30 01:37:39;;;;;;;2.20;1.95;;;;;;;-17.38;86.91;100351.53;4995713;28;20046;-62
2021/11/30 01:40:08;;;;;;;1.35;1.13;;;;;;;-17.42;86.65;100349.66;4995460;28;20062;-61
2021/11/30 01:42:35;;;;;;;1.73;1.63;;;;;;;-17.38;87.23;100344.06;4995803;28;20124;-63
2021/11/30 01:45:06;;;;;;;1.30;1.30;;;;;;;-17.26;87.17;100348.78;4995501;28;20141;-62
2021/11/30 01:47:54;;;;;;;1.50;1.40;;;;;;;-17.26;86.10;100338.81;4995619;28;20385;-62
2021/11/30 01:50:21;;;;;;;1.02;1.02;;;;;;;-17.25;86.70;100333.09;4995486;28;20082;-61
2021/11/30 01:52:50;;;;;;;1.80;1.70;;;;;;;-17.27;87.20;100330.50;4996164;28;20050;-62
2021/11/30 01:55:18;;;;;;;2.55;2.30;;;;;;;-17.26;87.12;100326.38;4995530;28;20444;-62
2021/11/30 01:57:46;;;;;;;1.58;1.48;;;;;;;-17.16;86.44;100319.47;4995472;28;20049;-62
2021/11/30 02:00:16;;;;;;;1.83;1.50;;;;;;;-17.17;87.00;100309.44;4995151;28;20086;-61
2021/11/30 02:02:44;;;;;;;1.58;1.48;;;;;;;-17.07;87.30;100313.22;4995111;28;20134;-61
2021/11/30 02:05:12;;;;;;;1.23;1.13;;;;;;;-17.20;86.85;100309.28;4994896;28;20158;-62
2021/11/30 02:07:40;;;;;;;1.40;1.30;;;;;;;-17.17;87.75;100302.81;4995309;28;20092;-62
2021/11/30 02:10:10;;;;;;;1.20;1.20;;;;;;;-17.09;87.21;100299.88;4995364;28;20101;-62
2021/11/30 02:12:38;;;;;;;2.00;1.83;;;;;;;-16.99;86.75;100302.84;4995169;28;20101;-62
2021/11/30 02:15:08;;;;;;;1.33;1.33;;;;;;;-17.03;86.38;100307.59;4994805;28;20077;-62
2021/11/30 02:17:35;;;;;;;1.58;1.48;;;;;;;-17.00;87.13;100301.16;4994730;28;20488;-61
2021/11/30 02:20:05;;;;;;;3.05;1.77;;;;;;;-17.08;87.40;100294.09;4994927;28;20050;-61
2021/11/30 02:22:32;;;;;;;2.15;1.48;;;;;;;-17.06;86.82;100282.59;4994888;28;20113;-62
2021/11/30 02:24:59;;;;;;;1.85;1.75;;;;;;;-17.14;87.42;100277.25;4994889;28;20145;-62
2021/11/30 02:27:25;;;;;;;;;;;;;;;-17.03;87.75;100277.75;4994804;28;20457;-62
2021/11/30 02:29:52;;;;;;;;;;;;;;;-17.02;87.57;100280.31;4994971;28;20360;-63
2021/11/30 02:32:20;;;;;;;;;;;;;;;-17.07;86.75;100269.31;4995134;28;19971;-62
2021/11/30 02:34:47;;;;;;;1.50;1.40;;;;;;;-17.07;87.39;100273.44;4994839;28;19925;-62
2021/11/30 02:37:22;;;;;;;;;;;;;;;-17.19;88.63;100264.56;4995164;28;20129;-62
2021/11/30 02:39:49;;;;;;;1.20;1.20;;;;;;;-17.14;87.19;100250.72;4994331;28;19928;-62
2021/11/30 02:42:16;;;;;;;;;;;;;;;-17.05;87.52;100244.50;4995089;28;20054;-63
2021/11/30 02:44:43;;;;;;;1.10;1.10;;;;;;;-17.08;87.78;100242.72;4994230;28;19957;-62
2021/11/30 02:47:14;;;;;;;1.63;1.45;;;;;;;-17.07;87.37;100239.44;4999251;28;20042;-62
2021/11/30 02:49:43;;;;;;;1.50;1.40;;;;;;;-17.02;88.06;100228.06;5000078;28;20062;-64
2021/11/30 02:52:17;;;;;;;1.20;1.20;;;;;;;-17.05;87.30;100222.09;4996789;28;20061;-63
2021/11/30 02:54:48;;;;;;;1.25;1.25;;;;;;;-17.03;87.24;100213.94;4995548;28;20054;-63
2021/11/30 02:57:17;;;;;;;1.33;1.33;;;;;;;-16.98;88.10;100214.13;4994350;28;20146;-62
2021/11/30 02:59:46;;;;;;;1.10;1.10;;;;;;;-16.96;87.86;100217.53;4994144;28;20142;-64
2021/11/30 03:02:17;;;;;;;1.48;1.38;;;;;;;-16.91;88.13;100199.56;4994264;28;20133;-63
2021/11/30 03:04:47;;;;;;;1.40;1.30;;;;;;;-16.93;87.77;100206.09;4994097;28;20051;-63
2021/11/30 03:07:16;;;;;;;1.25;1.23;;;;;;;-16.85;87.97;100191.50;4994057;28;20141;-63
2021/11/30 03:09:45;;;;;;;1.10;1.10;;;;;;;-16.86;88.48;100188.97;4993890;28;20082;-64
2021/11/30 03:12:12;;;;;;;2.10;1.42;;;;;;;-16.82;88.04;100190.78;4994038;28;20141;-62
2021/11/30 03:14:39;;;;;;;;;;;;;;;-16.93;88.17;100180.34;4994361;28;20085;-62
2021/11/30 03:17:06;;;;;;;2.03;1.92;;;;;;;-16.89;87.42;100187.19;4993719;28;19921;-62
2021/11/30 03:19:34;;;;;;;1.40;1.30;;;;;;;-16.89;88.07;100174.75;4993963;28;20050;-63
2021/11/30 03:22:03;;;;;;;1.17;1.15;;;;;;;-16.87;87.88;100167.31;4993282;28;20140;-62
2021/11/30 03:24:30;;;;;;;1.30;1.30;;;;;;;-16.80;88.09;100164.34;4993690;28;20054;-62
2021/11/30 03:26:59;;;;;;;1.65;1.55;;;;;;;-16.84;88.41;100162.50;4993050;28;20084;-62
2021/11/30 03:29:27;;;;;;;2.10;1.33;;;;;;;-16.77;88.92;100162.81;4993434;28;20145;-63
2021/11/30 03:31:59;;;;;;;2.25;1.55;;;;;;;-16.72;88.29;100153.06;4993618;28;20145;-62
2021/11/30 03:34:26;;;;;;;1.38;1.35;;;;;;;-16.67;89.31;100146.63;4993670;28;20046;-62
2021/11/30 03:36:56;;;;;;;1.77;1.65;;;;;;;-16.59;88.12;100145.38;4993567;28;20412;-63
2021/11/30 03:39:25;;;;;;;1.13;1.13;;;;;;;-16.62;88.49;100137.72;4993042;28;20408;-62
2021/11/30 03:41:54;;;;;;;1.10;1.10;;;;;;;-16.53;89.02;100133.16;4992979;28;20567;-62
2021/11/30 03:44:23;;;;;;;0.95;0.95;;;;;;;-16.51;88.69;100125.78;4993079;28;20137;-63
2021/11/30 03:46:51;;;;;;;1.00;1.00;;;;;;;-16.40;88.52;100121.25;4993287;28;20046;-62
2021/11/30 03:49:19;;;;;;;1.13;1.13;;;;;;;-16.38;89.33;100122.19;4993328;28;20492;-64
2021/11/30 03:51:47;;;;;;;1.00;1.00;;;;;;;-16.34;89.15;100127.31;4993083;28;20100;-62
2021/11/30 03:54:15;;;;;;;1.25;1.25;;;;;;;-16.36;88.40;100123.06;4993553;28;20082;-63
2021/11/30 03:56:42;;;;;;;1.58;1.48;;;;;;;-16.31;89.23;100119.13;4993302;28;20136;-62
2021/11/30 03:59:10;;;;;;;;;;;;;;;-16.34;89.24;100114.03;4993742;28;20066;-62
2021/11/30 04:01:39;;;;;;;1.02;1.02;;;;;;;-16.32;89.01;100110.81;4993077;28;19979;-62
2021/11/30 04:04:11;;;;;;;1.70;1.60;;;;;;;-16.24;88.99;100106.16;4993072;28;20462;-62
2021/11/30 04:06:38;;;;;;;3.25;2.10;;;;;;;-16.24;88.40;100097.03;4993127;28;20076;-62
2021/11/30 04:09:06;;;;;;;1.85;1.45;;;;;;;-16.27;89.75;100089.44;4993387;28;20125;-62
2021/11/30 04:11:33;;;;;;;1.20;1.20;;;;;;;-16.19;89.35;100086.41;4993054;28;20145;-62
2021/11/30 04:14:00;;;;;;;1.95;1.75;;;;;;;-16.18;89.22;100079.03;4992840;28;20074;-63
2021/11/30 04:16:27;;;;;;;1.30;1.20;;;;;;;-16.07;88.69;100082.78;4993538;28;20139;-63
2021/11/30 04:18:56;;;;;;;1.33;1.33;;;;;;;-16.10;88.50;100070.22;4993052;28;20054;-62
2021/11/30 04:21:23;;;;;;;1.77;1.67;;;;;;;-16.06;88.79;100063.69;4992937;28;20054;-63
2021/11/30 04:23:49;;;;;;;;;;;;;;;-16.04;87.95;100065.47;4993271;28;20051;-62
2021/11/30 04:26:16;;;;;;;;;;;;;;;-16.09;88.61;100061.09;4993179;28;20000;-62
2021/11/30 04:28:44;;;;;;;;;;;;;;;-16.07;89.25;100052.03;4993370;28;20028;-61
2021/11/30 04:31:11;;;;;;;1.30;1.30;;;;;;;-16.08;88.22;100045.34;4992892;28;20371;-63
2021/11/30 04:33:38;;;;;;;1.50;1.40;;;;;;;-16.16;89.64;100036.72;4992733;28;20133;-64
2021/11/30 04:36:07;;;;;;;5.68;1.55;;;;;;;-16.14;88.44;100032.66;4992578;28;20169;-63
2021/11/30 04:38:34;;;;;;;1.30;1.30;;;;;;;-16.11;88.89;100032.75;4992755;28;20054;-63
2021/11/30 04:41:02;;;;;;;1.10;1.10;;;;;;;-16.20;88.13;100020.78;4996830;28;20148;-63
2021/11/30 04:43:34;;;;;;;1.58;1.42;;;;;;;-16.17;88.05;100025.06;4996834;28;20133;-63
2021/11/30 04:46:05;;;;;;;1.88;1.67;;;;;;;-16.17;88.16;100022.56;4996738;28;20447;-61
2021/11/30 04:48:34;;;;;;;1.33;1.23;;;;;;;-16.18;88.41;100015.84;4996749;28;20480;-62
2021/11/30 04:51:03;;;;;;;2.22;2.03;;;;;;;-16.14;88.23;100008.56;4996723;28;20093;-62
2021/11/30 04:53:32;;;;;;;1.35;1.33;;;;;;;-16.14;89.33;100005.25;4997086;28;20120;-63
2021/11/30 04:56:00;;;;;;;1.55;1.42;;;;;;;-16.18;89.67;100000.91;4996496;28;20112;-64
2021/11/30 04:58:27;;;;;;;1.70;1.60;;;;;;;-16.17;89.16;99987.69;4996495;28;20042;-63
2021/11/30 05:00:54;;;;;;;;;;;;;;;-16.13;89.52;99984.50;4996833;28;20092;-63
2021/11/30 05:03:21;;;;;;;1.30;1.20;;;;;;;-16.01;89.53;99985.00;4996605;28;20020;-64
2021/11/30 05:05:48;;;;;;;;;;;;;;;-15.89;89.97;99977.16;4996887;28;20074;-62
2021/11/30 05:08:15;;;;;;;;;;;;;;;-15.96;89.75;99977.69;4996798;28;20036;-63
2021/11/30 05:10:43;;;;;;;;;;;;;;;-15.84;89.56;99973.19;4996568;28;20458;-64
2021/11/30 05:13:10;;;;;;;1.08;1.08;;;;;;;-15.74;89.55;99965.28;4996238;28;19995;-62
2021/11/30 05:15:37;;;;;;;2.97;1.65;;;;;;;-15.68;90.50;99967.94;4996093;28;20072;-63
2021/11/30 05:18:05;;;;;;;1.40;1.40;;;;;;;-15.65;89.56;99963.06;4996113;28;20141;-63
2021/11/30 05:20:32;;;;;;;1.17;1.15;;;;;;;-15.58;89.55;99965.00;4996185;28;20496;-63
2021/11/30 05:22:58;;;;;;;;;;;;;;;-15.55;91.04;99951.78;4996310;28;20134;-63
2021/11/30 05:25:32;;;;;;;1.35;1.25;;;;;;;-15.45;90.79;99945.50;4995892;28;20423;-63
2021/11/30 05:28:02;;;;;;;2.22;1.90;;;;;;;-15.39;89.89;99946.56;4995854;28;20066;-63
2021/11/30 05:30:36;;;;;;;1.30;1.30;;;;;;;-15.32;90.04;99936.81;4995715;28;20489;-63
2021/11/30 05:33:05;;;;;;;1.40;1.30;;;;;;;-15.28;89.35;99936.13;4995790;28;20042;-63
2021/11/30 05:35:32;;;;;;;1.60;1.50;;;;;;;-15.28;90.60;99929.50;4995619;28;20046;-61
2021/11/30 05:37:59;;;;;;;1.60;1.50;;;;;;;-15.17;90.85;99930.72;4995212;28;20141;-63
2021/11/30 05:40:26;;;;;;;2.78;1.85;;;;;;;-15.13;90.49;99924.16;4995713;28;20133;-63
2021/11/30 05:42:53;;;;;;;;;;;;;;;-15.07;90.18;99923.56;4995957;28;20084;-61
2021/11/30 05:45:21;;;;;;;;;;;;;;;-15.07;90.35;99916.91;4995997;28;19972;-61
2021/11/30 05:47:48;;;;;;;1.10;1.10;;;;;;;-15.04;90.09;99918.66;4995647;28;20025;-61
2021/11/30 05:50:15;;;;;;;1.45;1.35;;;;;;;-15.04;90.78;99909.53;4994511;28;20081;-62
2021/11/30 05:55:11;;;;;;;1.48;1.38;;;;;;;-14.91;90.23;99905.78;4974628;28;20050;-70
2021/11/30 05:57:39;;;;;;;2.17;1.98;;;;;;;-14.88;89.88;99900.06;4975489;28;20051;-77
2021/11/30 06:00:09;;;;;;;1.77;1.67;;;;;;;-14.93;89.91;99902.38;4975738;28;20043;-70
2021/11/30 06:02:52;;;;;;;0.90;0.90;;;;;;;-14.86;90.06;99885.97;4975820;28;20081;-70
2021/11/30 06:05:19;;;;;;;1.45;1.35;;;;;;;-14.82;89.39;99881.16;4975715;28;20531;-77
2021/11/30 06:07:46;;;;;;;;;;;;;;;-14.86;89.49;99874.34;4976250;28;20133;-76
2021/11/30 06:10:13;;;;;;;1.75;1.65;;;;;;;-14.90;89.92;99876.69;4975772;28;19972;-78
2021/11/30 06:12:40;;;;;;;2.67;2.20;;;;;;;-14.91;90.12;99870.84;4975338;28;20047;-72
2021/11/30 06:15:08;;;;;;;1.60;1.50;;;;;;;-14.88;90.22;99875.09;4975016;28;20079;-69
2021/11/30 06:17:37;;;;;;;1.75;1.65;;;;;;;-14.89;89.19;99866.75;4974823;28;20081;-71
2021/11/30 06:20:05;;;;;;;1.10;1.10;;;;;;;-14.84;89.84;99862.75;4975725;28;20089;-73
2021/11/30 06:22:32;;;;;;;1.33;1.27;;;;;;;-14.86;89.97;99856.88;4967940;28;20050;-72
2021/11/30 06:24:59;;;;;;;1.65;1.55;;;;;;;-14.89;89.43;99856.78;4974851;28;20051;-71
2021/11/30 06:27:26;;;;;;;1.30;1.20;;;;;;;-14.79;89.96;99850.44;4961586;28;20079;-71
2021/11/30 06:29:53;;;;;;;1.30;1.20;;;;;;;-14.74;89.76;99838.94;4956099;28;20049;-74
2021/11/30 06:32:20;;;;;;;1.88;1.73;;;;;;;-14.81;89.89;99847.03;4955450;29;20544;-72
2021/11/30 06:34:48;;;;;;;;;;;;;;;-14.67;89.66;99839.97;4956244;29;20150;-69
2021/11/30 06:37:16;;;;;;;2.05;1.70;;;;;;;-14.67;89.31;99838.31;4955965;29;20029;-71
2021/11/30 06:39:43;;;;;;;1.30;1.20;;;;;;;-14.64;89.84;99830.94;4955843;29;20126;-73
2021/11/30 06:42:10;;;;;;;1.20;1.10;;;;;;;-14.68;89.05;99821.66;4955659;28;20051;-69
2021/11/30 06:44:37;;;;;;;1.98;1.88;;;;;;;-14.70;89.01;99821.59;4955402;28;20142;-76
2021/11/30 06:47:05;;;;;;;1.30;1.20;;;;;;;-14.67;89.76;99820.00;4955899;29;20079;-71
2021/11/30 06:49:32;;;;;;;1.67;1.58;;;;;;;-14.78;89.39;99814.66;4955778;29;20074;-74
2021/11/30 06:52:00;;;;;;;1.75;1.65;;;;;;;-14.76;89.01;99813.91;4964625;28;20085;-74
2021/11/30 06:54:27;;;;;;;1.27;1.23;;;;;;;-14.75;88.98;99809.75;5013651;22;20056;-62
2021/11/30 06:56:54;;;;;;;1.20;1.20;;;;;;;-14.76;89.56;99796.44;5013764;28;20095;-64
2021/11/30 06:59:23;;;;;;;1.30;1.20;;;;;;;-14.75;88.77;99799.78;5013867;28;20048;-64
2021/11/30 07:01:50;;;;;;;1.27;1.20;;;;;;;-14.77;89.06;99797.25;5013545;28;20053;-65
2021/11/30 07:04:18;;;;;;;1.50;1.40;;;;;;;-14.76;89.18;99791.44;5013489;28;20088;-65
2021/11/30 07:06:57;;;;;;;1.63;1.52;;;;;;;-14.84;89.34;99782.88;5013589;28;20050;-65
2021/11/30 07:09:34;;;;;;;1.13;1.13;;;;;;;-14.82;89.51;99776.28;5013235;28;20519;-66
2021/11/30 07:12:09;;;;;;;1.50;1.40;;;;;;;-14.85;89.31;99768.66;5013451;28;20050;-65
2021/11/30 07:14:36;;;;;;;1.30;1.20;;;;;;;-14.79;89.29;99768.88;5013690;28;20042;-64
2021/11/30 07:17:04;;;;;;;1.13;1.13;;;;;;;-14.83;88.50;99767.06;5013310;28;20041;-64
2021/11/30 07:19:32;;;;;;;1.52;1.40;;;;;;;-14.80;89.09;99759.66;5012813;28;20042;-65
2021/11/30 07:21:59;;;;;;;15.40;1.83;;;;;;;-14.81;89.10;99753.00;5013342;28;20050;-65
2021/11/30 07:24:28;;;;;;;1.02;1.02;;;;;;;-14.84;88.70;99742.91;5013669;28;20074;-64
2021/11/30 07:26:55;;;;;;;1.85;1.45;;;;;;;-14.90;89.11;99751.84;5013280;28;20464;-65
2021/11/30 07:29:22;;;;;;;2.08;1.73;;;;;;;-14.86;88.97;99743.66;5012818;28;20540;-65
2021/11/30 07:31:49;;;;;;;1.30;1.15;;;;;;;-14.85;89.22;99736.22;5013312;28;20452;-64
2021/11/30 07:34:16;;;;;;;1.88;1.73;;;;;;;-14.83;89.60;99729.63;5012179;28;20053;-65
2021/11/30 07:36:43;;;;;;;1.20;1.13;;;;;;;-14.79;88.90;99730.56;5010809;28;20475;-64
2021/11/30 07:39:10;;;;;;;2.00;1.60;;;;;;;-14.79;88.65;99720.59;5012614;28;20128;-65
2021/11/30 07:41:39;;;;;;;1.27;1.25;;;;;;;-14.77;89.04;99716.47;5013344;28;20081;-65
2021/11/30 07:44:07;;;;;;;1.50;1.40;;;;;;;-14.72;89.13;99712.44;5010859;28;20104;-65
2021/11/30 07:46:34;;;;;;;1.50;1.40;;;;;;;-14.67;88.50;99702.59;5011308;28;20145;-64
2021/11/30 07:49:01;;;;;;;3.80;1.60;;;;;;;-14.66;88.81;99706.81;5012017;28;20156;-65
2021/11/30 07:51:28;;;;;;;2.17;1.98;;;;;;;-14.59;88.54;99689.56;5012404;28;20483;-63
2021/11/30 07:53:55;;;;;;;;;;;;;;;-14.55;88.89;99695.47;5012050;28;20104;-64
2021/11/30 07:56:22;;;;;;;1.38;1.33;;;;;;;-14.57;88.82;99682.09;5011929;28;20016;-64
2021/11/30 07:58:50;;;;;;;1.00;1.00;;;;;;;-14.53;88.72;99682.22;5011929;28;20046;-64
2021/11/30 08:01:17;;;;;;;1.50;1.40;;;;;;;-14.50;88.67;99671.44;5011008;28;20092;-65
2021/11/30 08:03:45;;;;;;;1.45;1.35;;;;;;;-14.47;88.42;99659.88;5011720;28;20134;-64
2021/11/30 08:06:12;;;;;;;3.70;1.95;;;;;;;-14.47;88.75;99649.88;4998302;28;20140;-65
2021/11/30 08:08:40;;;;;;;;;;;;;;;-14.43;88.30;99654.97;5012735;28;20073;-62
2021/11/30 08:11:08;;;;;;;2.08;1.33;;;;;;;-14.38;88.33;99633.44;5010456;28;19921;-66
2021/11/30 08:13:35;;;;;;;1.92;1.52;;;;;;;-14.34;88.43;99636.06;5010365;28;20092;-65
2021/11/30 08:16:04;;;;;;;1.30;1.30;;;;;;;-14.27;88.83;99632.09;5011849;28;20132;-64
2021/11/30 08:18:31;;;;;;;1.73;1.63;;;;;;;-14.26;88.54;99624.63;5011882;28;20092;-65
2021/11/30 08:20:58;;;;;;;2.67;1.83;;;;;;;-14.25;88.61;99620.50;5010769;28;20065;-65
2021/11/30 08:23:25;;;;;;;3.17;2.38;;;;;;;-14.26;88.10;99616.28;5011461;28;20120;-64
2021/11/30 08:25:52;;;;;;;2.92;2.33;;;;;;;-14.25;88.59;99613.00;5011305;28;20140;-64
2021/11/30 08:28:19;;;;;;;2.13;1.92;;;;;;;-14.16;88.22;99604.88;5010928;28;20422;-64
2021/11/30 08:30:46;;;;;;;1.63;1.20;;;;;;;-14.07;87.97;99595.13;5010692;28;20081;-65
2021/11/30 08:33:15;;;;;;;1.85;1.75;;;;;;;-14.09;88.03;99591.72;5010836;28;20053;-62
2021/11/30 08:35:42;;;;;;;1.25;1.20;;;;;;;-14.04;87.75;99586.03;5011711;28;20602;-64
2021/11/30 08:38:09;;;;;;;2.00;1.83;;;;;;;-14.07;88.23;99583.47;5010561;28;20069;-62
2021/11/30 08:40:36;;;;;;;1.55;1.23;;;;;;;-13.97;87.99;99582.03;5010218;28;20050;-65
2021/11/30 08:43:03;;;;;;;1.30;1.23;;;;;;;-13.98;88.26;99577.00;5011089;28;20506;-65
2021/11/30 08:45:31;;;;;;;3.28;1.80;;;;;;;-14.01;88.53;99566.94;5011774;28;20389;-63
2021/11/30 08:47:58;;;;;;;1.70;1.60;;;;;;;-14.00;88.28;99569.44;5010164;28;20053;-65
2021/11/30 08:50:27;;;;;;;1.35;1.27;;;;;;;-13.90;88.76;99563.84;5011061;28;20133;-64
2021/11/30 08:52:54;;;;;;;1.48;1.38;;;;;;;-13.84;88.50;99553.19;5011405;28;20496;-65
2021/11/30 08:55:22;;;;;;;1.10;1.10;;;;;;;-13.83;88.56;99547.34;5010665;28;20136;-66
2021/11/30 08:57:49;;;;;;;1.77;1.67;;;;;;;-13.84;88.34;99541.53;5010408;28;20072;-64
2021/11/30 09:00:19;;;;;;;;;;;;;;;-13.78;88.56;99533.31;5010691;28;20488;-65
2021/11/30 09:02:46;;;;;;;1.73;1.63;;;;;;;-13.71;88.39;99535.16;5011368;28;19921;-65
2021/11/30 09:05:13;;;;;;;;;;;;;;;-13.71;88.74;99530.13;5010840;28;20042;-64
2021/11/30 09:07:41;;;;;;;1.20;1.20;;;;;;;-13.65;88.99;99531.94;5010193;28;20028;-65
2021/11/30 09:10:09;;;;;;;1.92;1.27;;;;;;;-13.71;89.36;99520.13;5010546;28;20504;-63
2021/11/30 09:12:36;;;;;;;2.95;1.50;;;;;;;-13.55;89.27;99516.31;5011015;28;20571;-64
2021/11/30 09:15:05;;;;;;;2.03;1.35;;;;;;;-13.45;89.29;99500.69;5009716;28;20134;-64
2021/11/30 09:17:35;;;;;;;1.92;1.50;;;;;;;-13.40;89.47;99503.28;5011332;28;20046;-64
2021/11/30 09:20:02;;;;;;;8.73;2.20;;;;;;;-13.36;89.47;99500.03;5010508;28;20491;-64
2021/11/30 09:22:29;;;;;;;;;;;;;;;-13.24;89.78;99486.91;5011104;28;20415;-63
2021/11/30 09:24:58;;;;;;;1.10;1.10;;;;;;;-13.12;90.04;99481.31;5010979;28;19922;-63
2021/11/30 09:27:26;;;;;;;1.50;1.40;;;;;;;-13.02;89.75;99480.63;5013842;28;20060;-63
2021/11/30 09:29:53;;;;;;;1.65;1.55;;;;;;;-12.96;90.01;99464.09;5014770;28;20053;-64
2021/11/30 09:32:23;;;;;;;1.25;1.17;;;;;;;-12.89;89.62;99457.53;5013575;28;20104;-63
2021/11/30 09:34:50;;;;;;;2.08;1.98;;;;;;;-12.75;89.72;99456.13;5013188;28;20053;-64
2021/11/30 09:37:17;;;;;;;1.35;1.25;;;;;;;-12.67;90.05;99451.22;5014404;28;20496;-64
2021/11/30 09:39:44;;;;;;;1.55;1.45;;;;;;;-12.59;89.73;99451.38;5014568;28;20476;-64
2021/11/30 09:42:13;;;;;;;1.60;1.50;;;;;;;-12.54;89.84;99445.63;5012174;28;20500;-62
2021/11/30 09:44:44;;;;;;;1.55;1.45;;;;;;;-12.43;90.06;99444.94;5013835;28;20054;-62
2021/11/30 09:47:12;;;;;;;1.02;1.02;;;;;;;-12.36;89.63;99424.19;5013833;28;20053;-64
2021/11/30 09:49:40;;;;;;;1.83;1.67;;;;;;;-12.33;89.86;99432.63;5013846;28;20089;-64
2021/11/30 09:52:07;;;;;;;1.60;1.50;;;;;;;-12.24;90.50;99426.06;5013538;28;20509;-64
2021/11/30 09:54:34;;;;;;;1.10;1.10;;;;;;;-12.11;90.40;99431.25;5014063;28;20132;-64
2021/11/30 09:57:02;;;;;;;2.00;1.80;;;;;;;-11.98;90.01;99421.41;5014458;28;20137;-64
2021/11/30 09:59:31;;;;;;;1.63;1.52;;;;;;;-11.91;90.07;99405.63;5013203;28;20050;-63
2021/11/30 10:01:58;;;;;;;1.25;1.20;;;;;;;-11.86;89.99;99394.00;5011488;28;20141;-63
2021/11/30 10:04:25;;;;;;;1.55;1.40;;;;;;;-11.76;90.03;99405.81;5013877;28;20136;-63
2021/11/30 10:06:52;;;;;;;5.28;1.58;;;;;;;-11.74;89.99;99396.63;5013945;28;20046;-64
2021/11/30 10:09:23;;;;;;;1.73;1.63;;;;;;;-11.68;89.97;99390.84;5010300;28;20069;-65
2021/11/30 10:11:58;;;;;;;1.55;1.45;;;;;;;-11.67;89.38;99385.00;5013809;28;20096;-64
2021/11/30 10:14:32;;;;;;;1.40;1.30;;;;;;;-11.61;89.76;99382.56;5013879;28;20053;-64
2021/11/30 10:17:18;;;;;;;1.38;1.27;;;;;;;-11.54;90.51;99370.94;5013439;28;20100;-65
2021/11/30 10:19:53;;;;;;;1.90;1.58;;;;;;;-11.60;89.98;99356.66;5007916;28;20458;-64
2021/11/30 10:22:39;;;;;;;1.02;1.02;;;;;;;-11.50;90.11;99353.41;5000041;28;20085;-64
2021/11/30 10:25:12;;;;;;;1.45;1.35;;;;;;;-11.53;90.80;99350.88;5013528;28;20116;-64
2021/11/30 10:27:43;;;;;;;1.60;1.50;;;;;;;-11.50;90.19;99347.56;5012017;28;20145;-64
2021/11/30 10:30:16;;;;;;;1.40;1.30;;;;;;;-11.45;90.72;99333.41;5013050;28;20042;-63
2021/11/30 10:32:47;;;;;;;1.48;1.38;;;;;;;-11.44;90.45;99322.53;5013559;28;20056;-64
2021/11/30 10:35:15;;;;;;;1.25;1.17;;;;;;;-11.35;90.32;99317.59;5012769;28;20500;-64
2021/11/30 10:37:44;;;;;;;1.60;1.50;;;;;;;-11.40;91.03;99316.72;5012192;28;20049;-64
2021/11/30 10:40:13;;;;;;;1.98;1.80;;;;;;;-11.37;90.26;99310.88;5012929;28;20135;-63
2021/11/30 10:42:49;;;;;;;1.50;1.40;;;;;;;-11.37;90.57;99303.34;5012717;28;20058;-63
2021/11/30 10:45:33;;;;;;;1.23;1.23;;;;;;;-11.33;89.83;99300.88;5012052;28;20510;-63
2021/11/30 10:48:08;;;;;;;1.50;1.40;;;;;;;-11.33;90.20;99300.03;5012067;28;20050;-62
2021/11/30 10:50:38;;;;;;;1.67;1.58;;;;;;;-11.32;90.16;99295.03;5011186;28;20508;-64
2021/11/30 10:53:15;;;;;;;1.42;1.33;;;;;;;-11.28;90.90;99283.34;5011767;28;20403;-62
2021/11/30 10:55:46;;;;;;;1.13;1.05;;;;;;;-11.29;90.11;99281.66;5013007;28;20116;-61
2021/11/30 10:58:13;;;;;;;1.20;1.20;;;;;;;-11.26;90.27;99282.53;5013901;28;20506;-63
2021/11/30 11:00:41;;;;;;;;;;;;;;;-11.27;90.91;99275.00;5012500;28;20148;-63
2021/11/30 11:03:16;;;;;;;2.05;1.85;;;;;;;-11.24;90.58;99275.84;5012096;28;20032;-63
2021/11/30 11:05:45;;;;;;;1.55;1.33;;;;;;;-11.22;91.22;99259.13;5012790;28;20046;-63
2021/11/30 11:08:14;;;;;;;2.22;1.98;;;;;;;-11.24;91.26;99250.75;5012794;28;20096;-63
2021/11/30 11:10:45;;;;;;;2.72;1.30;;;;;;;-11.10;91.02;99247.50;5013890;28;20136;-63
2021/11/30 11:13:23;;;;;;;2.55;1.58;;;;;;;-11.15;90.47;99241.59;5013759;28;20073;-63
2021/11/30 11:15:52;;;;;;;1.55;1.45;;;;;;;-11.08;91.22;99240.81;5016610;28;20054;-63
2021/11/30 11:18:23;;;;;;;1.50;1.33;;;;;;;-11.06;90.88;99224.09;5014859;28;20057;-64
2021/11/30 11:20:51;;;;;;;1.58;1.48;;;;;;;-10.98;90.46;99212.44;5015790;28;20056;-63
2021/11/30 11:23:26;;;;;;;1.30;1.20;;;;;;;-10.96;90.73;99214.13;5014489;28;20129;-64
2021/11/30 11:25:54;;;;;;;1.20;1.10;;;;;;;-10.98;90.79;99219.97;5013365;28;20046;-63
2021/11/30 11:28:23;;;;;;;1.30;1.20;;;;;;;-10.91;91.16;99213.31;5011419;28;20049;-64
2021/11/30 11:30:51;;;;;;;1.45;1.35;;;;;;;-10.92;91.14;99207.44;5012559;28;20480;-64
2021/11/30 11:33:18;;;;;;;1.30;1.20;;;;;;;-10.89;91.12;99210.00;5012820;28;20166;-63
2021/11/30 11:35:47;;;;;;;2.38;1.85;;;;;;;-10.90;91.07;99207.47;5011623;28;20053;-63
2021/11/30 11:38:14;;;;;;;2.10;1.85;;;;;;;-10.84;90.95;99204.97;5011584;28;20141;-64